createdAt,value
2023-02-19T00:00:38.004Z,100343.75
2023-02-19T00:03:41.760Z,100347.88
2023-02-19T00:06:45.526Z,100339.25
2023-02-19T00:09:47.942Z,100333.19
2023-02-19T00:12:50.850Z,100329.22
2023-02-19T00:15:53.359Z,100334.16
2023-02-19T00:18:58.018Z,100335.59
2023-02-19T00:22:00.484Z,100331.63
2023-02-19T00:25:02.756Z,100326.81
2023-02-19T00:28:05.521Z,100328.25
2023-02-19T00:31:19.936Z,100328.91
2023-02-19T00:34:22.494Z,100333.00
2023-02-19T00:37:24.667Z,100326.81
2023-02-19T00:40:27.482Z,100323.00
2023-02-19T00:43:29.671Z,100323.31
2023-02-19T00:46:36.637Z,100311.03
2023-02-19T00:49:38.868Z,100306.88
2023-02-19T00:52:41.497Z,100309.88
2023-02-19T00:55:43.840Z,100319.31
2023-02-19T00:58:46.988Z,100312.16
2023-02-19T01:01:49.774Z,100315.47
2023-02-19T01:04:53.266Z,100318.81
2023-02-19T01:07:55.466Z,100304.47
2023-02-19T01:10:58.991Z,100309.25
2023-02-19T01:14:02.370Z,100312.78
2023-02-19T01:17:04.842Z,100316.44
2023-02-19T01:20:07.326Z,100315.59
2023-02-19T01:23:12.300Z,100314.84
2023-02-19T01:26:17.385Z,100317.22
2023-02-19T01:29:19.836Z,100318.37
2023-02-19T01:32:22.018Z,100305.47
2023-02-19T01:35:24.678Z,100303.56
2023-02-19T01:38:27.770Z,100308.44
2023-02-19T01:41:30.885Z,100322.94
2023-02-19T01:44:32.980Z,100312.69
2023-02-19T01:47:35.439Z,100318.75
2023-02-19T01:50:48.282Z,100312.88
2023-02-19T01:53:57.623Z,100307.12
2023-02-19T01:57:04.268Z,100306.34
2023-02-19T02:00:10.559Z,100298.03
2023-02-19T02:03:14.642Z,100303.91
2023-02-19T02:06:23.887Z,100303.44
2023-02-19T02:09:48.237Z,100300.75
2023-02-19T02:12:56.109Z,100292.16
2023-02-19T02:16:07.791Z,100289.31
2023-02-19T02:19:41.374Z,100313.03
2023-02-19T02:22:46.022Z,100307.59
2023-02-19T02:26:22.297Z,100291.37
2023-02-19T02:30:02.015Z,100303.00
2023-02-19T02:33:17.498Z,100292.47
2023-02-19T02:36:31.130Z,100288.00
2023-02-19T02:39:34.168Z,100286.12
2023-02-19T02:42:40.083Z,100290.41
2023-02-19T02:45:42.890Z,100286.75
2023-02-19T02:48:53.868Z,100286.09
2023-02-19T02:51:57.841Z,100280.81
2023-02-19T02:55:03.175Z,100287.19
2023-02-19T02:58:07.423Z,100280.16
2023-02-19T03:01:41.856Z,100283.31
2023-02-19T03:05:34.280Z,100299.69
2023-02-19T03:08:47.244Z,100297.28
2023-02-19T03:12:10.906Z,100288.69
2023-02-19T03:15:34.713Z,100289.44
2023-02-19T03:19:01.240Z,100286.59
2023-02-19T03:22:14.326Z,100292.00
2023-02-19T03:25:39.183Z,100293.25
2023-02-19T03:29:03.217Z,100302.00
2023-02-19T03:32:15.035Z,100305.78
2023-02-19T03:35:22.427Z,100298.97
2023-02-19T03:38:27.592Z,100294.13
2023-02-19T03:41:51.319Z,100278.50
2023-02-19T03:45:23.949Z,100291.22
2023-02-19T03:48:35.040Z,100298.50
2023-02-19T03:51:51.313Z,100292.91
2023-02-19T03:54:56.207Z,100296.41
2023-02-19T03:58:04.505Z,100285.44
2023-02-19T04:01:37.668Z,100279.38
2023-02-19T04:04:54.798Z,100284.16
2023-02-19T04:08:04.711Z,100282.53
2023-02-19T04:11:10.035Z,100289.19
2023-02-19T04:14:24.703Z,100294.28
2023-02-19T04:17:34.154Z,100306.03
2023-02-19T04:20:43.892Z,100300.41
2023-02-19T04:23:46.812Z,100305.16
2023-02-19T04:26:49.360Z,100294.94
2023-02-19T04:29:51.843Z,100298.75
2023-02-19T04:32:54.123Z,100299.66
2023-02-19T04:35:56.638Z,100298.75
2023-02-19T04:38:59.142Z,100302.91
2023-02-19T04:42:01.578Z,100297.91
2023-02-19T04:45:04.105Z,100295.69
2023-02-19T04:48:06.561Z,100294.41
2023-02-19T04:51:10.653Z,100299.72
2023-02-19T04:54:13.294Z,100314.63
2023-02-19T04:57:15.586Z,100314.63
2023-02-19T05:00:18.069Z,100314.63
2023-02-19T05:03:20.262Z,100297.66
2023-02-19T05:06:22.707Z,100291.06
2023-02-19T05:09:24.926Z,100295.25
2023-02-19T05:12:29.389Z,100297.16
2023-02-19T05:15:31.580Z,100305.34
2023-02-19T05:18:34.803Z,100299.22
2023-02-19T05:21:37.140Z,100292.03
2023-02-19T05:24:39.589Z,100302.13
2023-02-19T05:27:41.778Z,100310.53
2023-02-19T05:30:50.009Z,100295.47
2023-02-19T05:33:52.952Z,100297.16
2023-02-19T05:36:55.361Z,100288.88
2023-02-19T05:39:57.496Z,100288.09
2023-02-19T05:43:00.016Z,100282.38
2023-02-19T05:46:02.219Z,100282.84
2023-02-19T05:49:04.689Z,100283.16
2023-02-19T05:52:06.815Z,100286.28
2023-02-19T05:55:09.294Z,100302.28
2023-02-19T05:58:11.426Z,100302.28
2023-02-19T06:01:18.203Z,100298.59
2023-02-19T06:04:21.180Z,100310.50
2023-02-19T06:07:23.280Z,100314.28
2023-02-19T06:10:25.760Z,100307.16
2023-02-19T06:13:27.917Z,100315.88
2023-02-19T06:16:32.201Z,100313.28
2023-02-19T06:19:34.370Z,100304.19
2023-02-19T06:22:36.918Z,100301.00
2023-02-19T06:25:39.073Z,100290.91
2023-02-19T06:28:42.359Z,100289.00
2023-02-19T06:31:45.358Z,100284.91
2023-02-19T06:34:47.886Z,100285.22
2023-02-19T06:37:50.017Z,100286.50
2023-02-19T06:40:52.443Z,100281.72
2023-02-19T06:43:54.580Z,100274.50
2023-02-19T06:46:57.142Z,100272.84
2023-02-19T06:50:00.179Z,100268.13
2023-02-19T06:53:02.734Z,100275.94
2023-02-19T06:56:08.451Z,100277.63
2023-02-19T06:59:13.896Z,100277.53
2023-02-19T07:02:16.040Z,100275.13
2023-02-19T07:05:18.468Z,100276.50
2023-02-19T07:08:20.792Z,100279.59
2023-02-19T07:11:24.221Z,100283.50
2023-02-19T07:14:26.395Z,100282.91
2023-02-19T07:17:28.873Z,100293.31
2023-02-19T07:20:31.005Z,100286.31
2023-02-19T07:23:33.734Z,100292.50
2023-02-19T07:26:36.279Z,100291.31
2023-02-19T07:29:38.828Z,100281.31
2023-02-19T07:32:42.059Z,100284.09
2023-02-19T07:35:48.215Z,100277.63
2023-02-19T07:38:57.804Z,100269.62
2023-02-19T07:42:00.610Z,100265.94
2023-02-19T07:45:02.874Z,100265.31
2023-02-19T07:48:05.335Z,100256.34
2023-02-19T07:51:10.955Z,100259.94
2023-02-19T07:54:13.677Z,100264.00
2023-02-19T07:57:16.080Z,100270.41
2023-02-19T08:00:19.978Z,100279.50
2023-02-19T08:03:22.712Z,100269.50
2023-02-19T08:06:24.902Z,100290.28
2023-02-19T08:09:27.373Z,100298.16
2023-02-19T08:12:48.190Z,100303.06
2023-02-19T08:15:55.118Z,100301.75
2023-02-19T08:18:58.319Z,100298.37
2023-02-19T08:22:00.768Z,100298.88
2023-02-19T08:25:03.077Z,100315.47
2023-02-19T08:28:09.452Z,100318.25
2023-02-19T08:31:12.806Z,100323.44
2023-02-19T08:34:15.440Z,100320.31
2023-02-19T08:37:17.593Z,100314.00
2023-02-19T08:40:20.045Z,100306.34
2023-02-19T08:43:22.177Z,100306.97
2023-02-19T08:46:24.800Z,100303.09
2023-02-19T08:49:27.301Z,100299.97
2023-02-19T08:52:29.744Z,100300.66
2023-02-19T08:55:32.628Z,100299.84
2023-02-19T08:58:36.144Z,100292.72
2023-02-19T09:01:38.369Z,100305.91
2023-02-19T09:04:40.814Z,100297.22
2023-02-19T09:07:43.248Z,100299.53
2023-02-19T09:10:45.710Z,100303.53
2023-02-19T09:13:47.886Z,100308.66
2023-02-19T09:16:50.331Z,100301.94
2023-02-19T09:19:52.562Z,100303.16
2023-02-19T09:22:59.328Z,100306.28
2023-02-19T09:26:03.146Z,100299.72
2023-02-19T09:29:05.630Z,100297.28
2023-02-19T09:32:07.848Z,100306.00
2023-02-19T09:35:10.293Z,100301.81
2023-02-19T09:38:12.423Z,100295.84
2023-02-19T09:41:39.655Z,100296.06
2023-02-19T09:44:45.466Z,100291.97
2023-02-19T09:47:48.216Z,100282.72
2023-02-19T09:50:50.870Z,100289.00
2023-02-19T09:53:54.572Z,100287.19
2023-02-19T09:56:59.933Z,100285.78
2023-02-19T10:00:09.646Z,100284.00
2023-02-19T10:03:22.042Z,100283.63
2023-02-19T10:06:26.451Z,100267.78
2023-02-19T10:09:30.531Z,100262.62
2023-02-19T10:12:34.617Z,100269.72
2023-02-19T10:15:42.551Z,100257.72
2023-02-19T10:18:47.151Z,100243.97
2023-02-19T10:21:49.618Z,100227.66
2023-02-19T10:24:56.154Z,100231.94
2023-02-19T10:28:00.001Z,100219.31
2023-02-19T10:31:04.778Z,100232.41
2023-02-19T10:34:18.983Z,100218.41
2023-02-19T10:37:21.244Z,100216.03
2023-02-19T10:40:27.311Z,100210.50
2023-02-19T10:43:34.776Z,100202.19
2023-02-19T10:46:43.488Z,100198.94
2023-02-19T10:49:48.714Z,100178.78
2023-02-19T10:52:54.572Z,100185.13
2023-02-19T10:56:09.099Z,100176.81
2023-02-19T10:59:26.478Z,100179.41
2023-02-19T11:02:30.444Z,100179.00
2023-02-19T11:05:32.961Z,100160.09
2023-02-19T11:08:51.734Z,100148.69
2023-02-19T11:11:56.532Z,100157.19
2023-02-19T11:15:11.652Z,100170.94
2023-02-19T11:18:14.056Z,100152.31
2023-02-19T11:21:42.504Z,100135.84
2023-02-19T11:24:49.727Z,100137.69
2023-02-19T11:28:06.914Z,100148.13
2023-02-19T11:31:20.182Z,100142.13
2023-02-19T11:34:29.264Z,100127.50
2023-02-19T11:37:31.645Z,100126.50
2023-02-19T11:41:02.429Z,100125.94
2023-02-19T11:44:04.690Z,100116.19
2023-02-19T11:47:37.740Z,100106.56
2023-02-19T11:51:04.905Z,100099.69
2023-02-19T11:54:32.081Z,100096.50
2023-02-19T11:57:47.713Z,100110.56
2023-02-19T12:01:05.905Z,100090.41
2023-02-19T12:04:45.785Z,100077.91
2023-02-19T12:08:00.218Z,100070.22
2023-02-19T12:11:08.712Z,100054.22
2023-02-19T12:14:19.636Z,100069.97
2023-02-19T12:17:25.014Z,100062.28
2023-02-19T12:20:45.799Z,100061.28
2023-02-19T12:24:16.267Z,100058.63
2023-02-19T12:27:48.814Z,100060.00
2023-02-19T12:31:10.652Z,100052.75
2023-02-19T12:34:12.776Z,100049.78
2023-02-19T12:37:31.054Z,100056.25
2023-02-19T12:41:06.080Z,100045.44
2023-02-19T12:44:22.970Z,100033.84
2023-02-19T12:47:32.585Z,100056.22
2023-02-19T12:50:39.074Z,100043.84
2023-02-19T12:53:59.560Z,100059.03
2023-02-19T12:57:06.639Z,100070.94
2023-02-19T13:00:27.496Z,100082.50
2023-02-19T13:03:41.538Z,100082.56
2023-02-19T13:06:55.557Z,100076.59
2023-02-19T13:10:19.061Z,100063.00
2023-02-19T13:13:38.585Z,100049.66
2023-02-19T13:16:44.099Z,100046.03
2023-02-19T13:19:50.201Z,100044.50
2023-02-19T13:23:19.704Z,100025.28
2023-02-19T13:26:43.283Z,100022.38
2023-02-19T13:30:10.182Z,100022.66
2023-02-19T13:33:35.154Z,100002.44
2023-02-19T13:36:37.938Z,100035.06
2023-02-19T13:39:53.842Z,100019.69
2023-02-19T13:42:59.621Z,100026.50
2023-02-19T13:46:16.297Z,100017.72
2023-02-19T13:49:27.598Z,100045.44
2023-02-19T13:52:29.733Z,100042.09
2023-02-19T13:55:46.710Z,100067.37
2023-02-19T13:58:56.021Z,100067.72
2023-02-19T14:01:58.535Z,100082.56
2023-02-19T14:05:11.327Z,100129.19
2023-02-19T14:08:13.505Z,100140.34
2023-02-19T14:11:17.640Z,100205.12
2023-02-19T14:14:35.493Z,100157.88
2023-02-19T14:17:41.793Z,100156.63
2023-02-19T14:20:45.470Z,100168.09
2023-02-19T14:23:54.269Z,100185.78
2023-02-19T14:26:57.443Z,100174.94
2023-02-19T14:30:00.392Z,100168.88
2023-02-19T14:33:10.761Z,100177.31
2023-02-19T14:36:32.108Z,100188.75
2023-02-19T14:39:38.818Z,100206.41
2023-02-19T14:42:41.581Z,100197.66
2023-02-19T14:45:56.727Z,100197.63
2023-02-19T14:49:07.809Z,100196.87
2023-02-19T14:52:28.375Z,100203.09
2023-02-19T14:55:37.832Z,100191.91
2023-02-19T14:58:40.653Z,100193.50
2023-02-19T15:01:43.115Z,100186.69
2023-02-19T15:04:45.287Z,100180.00
2023-02-19T15:07:48.128Z,100193.41
2023-02-19T15:10:50.387Z,100196.91
2023-02-19T15:13:58.814Z,100214.41
2023-02-19T15:17:04.185Z,100235.41
2023-02-19T15:20:16.312Z,100234.00
2023-02-19T15:23:24.538Z,100247.00
2023-02-19T15:26:35.773Z,100244.34
2023-02-19T15:29:45.124Z,100244.34
2023-02-19T15:32:58.896Z,100257.81
2023-02-19T15:36:05.751Z,100246.78
2023-02-19T15:39:19.361Z,100238.81
2023-02-19T15:42:25.876Z,100249.75
2023-02-19T15:45:44.104Z,100251.69
2023-02-19T15:48:54.217Z,100253.19
2023-02-19T15:52:05.789Z,100236.22
2023-02-19T15:55:30.209Z,100234.94
2023-02-19T15:59:23.560Z,100240.97
2023-02-19T16:02:27.705Z,100227.63
2023-02-19T16:05:31.091Z,100243.22
2023-02-19T16:08:35.487Z,100243.97
2023-02-19T16:11:51.616Z,100275.72
2023-02-19T16:14:53.899Z,100255.84
2023-02-19T16:17:58.190Z,100264.72
2023-02-19T16:21:02.658Z,100280.63
2023-02-19T16:24:24.844Z,100271.25
2023-02-19T16:27:47.286Z,100275.09
2023-02-19T16:30:58.427Z,100274.16
2023-02-19T16:34:17.555Z,100287.69
2023-02-19T16:37:38.430Z,100291.75
2023-02-19T16:40:50.677Z,100293.69
2023-02-19T16:43:53.185Z,100319.28
2023-02-19T16:47:04.837Z,100325.19
2023-02-19T16:50:14.121Z,100322.25
2023-02-19T16:53:22.405Z,100328.44
2023-02-19T16:56:25.285Z,100317.25
2023-02-19T16:59:27.395Z,100321.44
2023-02-19T17:02:30.531Z,100335.09
2023-02-19T17:05:33.674Z,100333.72
2023-02-19T17:08:46.301Z,100329.72
2023-02-19T17:11:48.522Z,100355.13
2023-02-19T17:14:50.917Z,100337.50
2023-02-19T17:17:53.111Z,100350.34
2023-02-19T17:21:01.703Z,100343.22
2023-02-19T17:24:04.015Z,100355.13
2023-02-19T17:27:12.886Z,100341.72
2023-02-19T17:30:25.601Z,100335.53
2023-02-19T17:33:28.047Z,100340.34
2023-02-19T17:36:31.884Z,100357.62
2023-02-19T17:39:34.285Z,100354.25
2023-02-19T17:42:36.442Z,100352.84
2023-02-19T17:45:38.874Z,100362.06
2023-02-19T17:48:41.268Z,100363.66
2023-02-19T17:51:43.788Z,100383.44
2023-02-19T17:54:45.935Z,100395.25
2023-02-19T17:57:50.316Z,100383.84
2023-02-19T18:00:52.598Z,100385.25
2023-02-19T18:03:55.159Z,100395.72
2023-02-19T18:06:57.390Z,100374.75
2023-02-19T18:09:59.990Z,100377.03
2023-02-19T18:13:02.097Z,100364.34
2023-02-19T18:16:05.931Z,100385.44
2023-02-19T18:19:08.082Z,100384.84
2023-02-19T18:22:10.787Z,100387.00
2023-02-19T18:25:13.226Z,100393.00
2023-02-19T18:28:16.608Z,100415.00
2023-02-19T18:31:18.939Z,100426.09
2023-02-19T18:34:21.939Z,100437.31
2023-02-19T18:37:25.436Z,100441.78
2023-02-19T18:40:28.707Z,100440.66
2023-02-19T18:43:30.827Z,100466.03
2023-02-19T18:46:33.262Z,100458.16
2023-02-19T18:49:35.615Z,100470.91
2023-02-19T18:52:38.017Z,100475.09
2023-02-19T18:55:40.337Z,100483.75
2023-02-19T18:58:42.872Z,100495.22
2023-02-19T19:01:45.223Z,100501.56
2023-02-19T19:04:52.991Z,100509.44
2023-02-19T19:07:57.618Z,100516.81
2023-02-19T19:11:00.044Z,100514.25
2023-02-19T19:14:03.370Z,100533.28
2023-02-19T19:17:06.078Z,100530.56
2023-02-19T19:20:09.978Z,100541.78
2023-02-19T19:23:13.208Z,100532.09
2023-02-19T19:26:16.213Z,100527.34
2023-02-19T19:29:22.082Z,100550.00
2023-02-19T19:32:24.403Z,100549.88
2023-02-19T19:35:28.615Z,100548.66
2023-02-19T19:38:30.805Z,100543.25
2023-02-19T19:41:33.308Z,100557.47
2023-02-19T19:44:35.504Z,100548.13
2023-02-19T19:47:37.911Z,100565.84
2023-02-19T19:50:40.020Z,100569.25
2023-02-19T19:53:42.649Z,100560.16
2023-02-19T19:56:47.671Z,100566.63
2023-02-19T19:59:53.782Z,100574.66
2023-02-19T20:02:55.992Z,100572.22
2023-02-19T20:05:58.481Z,100565.69
2023-02-19T20:09:00.766Z,100582.91
2023-02-19T20:12:04.404Z,100581.47
2023-02-19T20:15:08.334Z,100592.59
2023-02-19T20:18:11.090Z,100612.31
2023-02-19T20:21:13.592Z,100609.09
2023-02-19T20:24:18.340Z,100625.84
2023-02-19T20:27:22.135Z,100639.03
2023-02-19T20:30:25.272Z,100643.91
2023-02-19T20:33:27.439Z,100652.88
2023-02-19T20:36:30.101Z,100672.31
2023-02-19T20:39:32.759Z,100679.22
2023-02-19T20:42:35.200Z,100666.34
2023-02-19T20:45:37.312Z,100674.19
2023-02-19T20:48:39.775Z,100672.13
2023-02-19T20:51:46.862Z,100687.50
2023-02-19T20:54:49.315Z,100685.88
2023-02-19T20:57:51.425Z,100697.53
2023-02-19T21:00:54.252Z,100707.22
2023-02-19T21:03:56.414Z,100712.94
2023-02-19T21:06:59.306Z,100716.78
2023-02-19T21:10:01.437Z,100719.50
2023-02-19T21:13:03.968Z,100721.84
2023-02-19T21:16:06.359Z,100734.03
2023-02-19T21:19:08.816Z,100750.25
2023-02-19T21:22:10.963Z,100733.34
2023-02-19T21:25:13.355Z,100722.19
2023-02-19T21:28:15.450Z,100725.16
2023-02-19T21:31:18.174Z,100725.44
2023-02-19T21:34:24.237Z,100757.72
2023-02-19T21:37:26.763Z,100732.00
2023-02-19T21:40:31.837Z,100739.03
2023-02-19T21:43:34.247Z,100736.59
2023-02-19T21:46:36.467Z,100732.37
2023-02-19T21:49:41.745Z,100724.34
2023-02-19T21:52:43.859Z,100731.38
2023-02-19T21:55:58.035Z,100744.31
2023-02-19T21:59:01.221Z,100737.84
2023-02-19T22:02:03.710Z,100755.84
2023-02-19T22:05:06.613Z,100759.91
2023-02-19T22:08:08.765Z,100755.34
2023-02-19T22:11:11.447Z,100755.63
2023-02-19T22:14:13.599Z,100772.28
2023-02-19T22:17:16.178Z,100769.31
2023-02-19T22:20:19.553Z,100766.91
2023-02-19T22:23:21.991Z,100783.03
2023-02-19T22:26:35.662Z,100782.47
2023-02-19T22:29:38.058Z,100786.25
2023-02-19T22:32:41.060Z,100789.47
2023-02-19T22:35:43.524Z,100787.56
2023-02-19T22:38:46.234Z,100797.75
2023-02-19T22:41:49.203Z,100800.47
2023-02-19T22:44:51.316Z,100796.66
2023-02-19T22:47:55.402Z,100785.94
2023-02-19T22:50:58.887Z,100799.81
2023-02-19T22:54:01.496Z,100793.09
2023-02-19T22:57:04.570Z,100807.88
2023-02-19T23:00:08.655Z,100797.66
2023-02-19T23:03:10.792Z,100798.22
2023-02-19T23:06:13.947Z,100818.06
2023-02-19T23:09:20.534Z,100815.28
2023-02-19T23:12:23.232Z,100811.84
2023-02-19T23:15:25.347Z,100822.28
2023-02-19T23:18:27.770Z,100835.97
2023-02-19T23:21:29.947Z,100829.00
2023-02-19T23:24:32.451Z,100843.47
2023-02-19T23:27:34.597Z,100842.69
2023-02-19T23:30:37.085Z,100844.50
2023-02-19T23:33:39.808Z,100863.78
2023-02-19T23:36:47.772Z,100864.31
2023-02-19T23:39:49.953Z,100865.66
2023-02-19T23:42:52.446Z,100887.34
2023-02-19T23:45:54.628Z,100877.69
2023-02-19T23:48:57.036Z,100879.88
2023-02-19T23:51:59.166Z,100889.44
2023-02-19T23:55:01.548Z,100894.34
2023-02-19T23:58:03.698Z,100900.66
